TimeCDT,TemperatureF,Dew PointF,Humidity,Sea Level PressureIn,VisibilityMPH,Wind Direction,Wind SpeedMPH,Gust SpeedMPH,PrecipitationIn,Events,Conditions,WindDirDegrees,DateUTC
12:53 AM,69.1,64.9,87,29.90,10.0,SE,13.8,-,N/A,,Clear,140,2013-04-09 05:53:00
1:53 AM,68.0,64.9,90,29.89,10.0,SE,13.8,-,N/A,,Clear,140,2013-04-09 06:53:00
2:53 AM,68.0,64.9,90,29.88,10.0,SE,10.4,-,N/A,,Scattered Clouds,140,2013-04-09 07:53:00
3:53 AM,68.0,64.9,90,29.87,10.0,SE,9.2,-,N/A,,Scattered Clouds,140,2013-04-09 08:53:00
4:53 AM,66.9,64.9,93,29.87,8.0,SE,8.1,-,N/A,,Clear,140,2013-04-09 09:53:00
5:53 AM,66.9,64.9,93,29.89,6.0,SE,6.9,-,N/A,,Clear,140,2013-04-09 10:53:00
6:53 AM,66.9,64.9,93,29.89,5.0,SE,9.2,-,N/A,,Clear,140,2013-04-09 11:53:00
7:05 AM,68.0,64.4,88,29.87,5.0,SE,9.2,-,N/A,,Scattered Clouds,140,2013-04-09 12:05:00
7:13 AM,68.0,66.2,94,29.87,5.0,SE,10.4,-,N/A,,Mostly Cloudy,140,2013-04-09 12:13:00
7:53 AM,70.0,66.9,90,29.90,7.0,SSE,9.2,-,N/A,,Overcast,150,2013-04-09 12:53:00
8:35 AM,71.6,68.0,88,29.88,8.0,SE,11.5,-,N/A,,Overcast,130,2013-04-09 13:35:00
8:45 AM,71.6,68.0,88,29.88,8.0,SE,12.7,-,N/A,,Overcast,140,2013-04-09 13:45:00
8:53 AM,72.0,69.1,91,29.90,8.0,SE,11.5,-,N/A,,Overcast,140,2013-04-09 13:53:00
9:00 AM,73.4,69.8,88,29.88,8.0,SE,11.5,-,N/A,,Overcast,140,2013-04-09 14:00:00
9:11 AM,73.4,69.8,88,29.88,9.0,SE,13.8,-,N/A,,Overcast,140,2013-04-09 14:11:00
9:53 AM,75.0,70.0,84,29.91,9.0,SSE,12.7,-,N/A,,Overcast,150,2013-04-09 14:53:00
10:42 AM,78.8,69.8,74,29.90,10.0,SSE,18.4,24.2,N/A,,Overcast,160,2013-04-09 15:42:00
10:53 AM,78.1,70.0,76,29.93,10.0,SSE,19.6,28.8,N/A,,Overcast,160,2013-04-09 15:53:00
11:53 AM,77.0,70.0,79,29.92,10.0,SSE,17.3,24.2,N/A,,Overcast,160,2013-04-09 16:53:00
12:17 PM,77.0,69.8,78,29.89,10.0,SSE,16.1,25.3,N/A,,Overcast,150,2013-04-09 17:17:00
12:53 PM,78.1,70.0,76,29.92,10.0,SSE,18.4,24.2,N/A,,Overcast,160,2013-04-09 17:53:00
1:53 PM,79.0,70.0,74,29.91,10.0,SSE,20.7,33.4,N/A,,Overcast,160,2013-04-09 18:53:00
2:53 PM,79.0,69.1,72,29.89,10.0,SSE,20.7,35.7,N/A,,Mostly Cloudy,160,2013-04-09 19:53:00
3:06 PM,80.6,69.8,70,29.87,10.0,South,18.4,28.8,N/A,,Mostly Cloudy,170,2013-04-09 20:06:00
3:17 PM,78.8,69.8,74,29.86,10.0,South,18.4,31.1,N/A,,Mostly Cloudy,170,2013-04-09 20:17:00
3:29 PM,78.8,69.8,74,29.86,10.0,SSE,23.0,33.4,N/A,,Mostly Cloudy,160,2013-04-09 20:29:00
3:50 PM,78.8,69.8,74,29.85,10.0,SSE,26.5,32.2,N/A,,Mostly Cloudy,160,2013-04-09 20:50:00
3:53 PM,79.0,70.0,74,29.87,10.0,SSE,23.0,32.2,N/A,,Mostly Cloudy,160,2013-04-09 20:53:00
4:28 PM,77.0,69.8,78,29.83,10.0,SE,26.5,38.0,N/A,,Mostly Cloudy,140,2013-04-09 21:28:00
4:53 PM,77.0,70.0,79,29.83,10.0,SSE,26.5,41.4,N/A,,Mostly Cloudy,150,2013-04-09 21:53:00
5:53 PM,75.9,70.0,82,29.85,10.0,SSE,21.9,33.4,N/A,,Overcast,160,2013-04-09 22:53:00
6:53 PM,75.9,70.0,82,29.86,10.0,SSE,18.4,29.9,N/A,,Overcast,150,2013-04-09 23:53:00
7:53 PM,75.0,70.0,84,29.86,10.0,SE,23.0,31.1,0.00,,Overcast,140,2013-04-10 00:53:00
8:53 PM,75.0,70.0,84,29.89,10.0,SSE,20.7,27.6,N/A,,Overcast,150,2013-04-10 01:53:00
9:35 PM,75.2,69.8,83,29.93,10.0,SSE,16.1,23.0,N/A,,Overcast,160,2013-04-10 02:35:00
9:53 PM,75.9,70.0,82,29.91,10.0,SE,25.3,32.2,N/A,,Overcast,140,2013-04-10 02:53:00
10:30 PM,75.2,69.8,83,29.84,10.0,SE,27.6,36.8,N/A,,Mostly Cloudy,130,2013-04-10 03:30:00
10:53 PM,75.9,70.0,82,29.93,10.0,SSE,17.3,31.1,N/A,,Overcast,160,2013-04-10 03:53:00
11:53 PM,75.0,70.0,84,29.83,10.0,SE,29.9,38.0,N/A,,Overcast,140,2013-04-10 04:53:00